createdAt,value
2018-01-22T00:00:25.742Z,99.99
2018-01-22T00:01:25.740Z,99.99
2018-01-22T00:02:25.736Z,99.99
2018-01-22T00:03:25.727Z,99.99
2018-01-22T00:04:25.730Z,99.99
2018-01-22T00:05:25.731Z,99.99
2018-01-22T00:06:25.729Z,99.99
2018-01-22T00:07:25.720Z,99.99
2018-01-22T00:08:25.722Z,99.99
2018-01-22T00:09:25.714Z,99.99
2018-01-22T00:10:25.711Z,99.99
2018-01-22T00:11:25.713Z,99.99
2018-01-22T00:12:25.708Z,99.99
2018-01-22T00:13:25.696Z,99.99
2018-01-22T00:14:25.698Z,99.99
2018-01-22T00:15:25.699Z,99.99
2018-01-22T00:16:25.696Z,99.99
2018-01-22T00:17:25.693Z,99.99
2018-01-22T00:18:25.686Z,99.99
2018-01-22T00:19:25.685Z,99.99
2018-01-22T00:20:25.683Z,99.99
2018-01-22T00:21:25.670Z,99.99
2018-01-22T00:22:25.677Z,99.99
2018-01-22T00:23:25.669Z,99.99
2018-01-22T00:24:25.665Z,99.99
2018-01-22T00:25:25.667Z,99.99
2018-01-22T00:26:25.664Z,99.99
2018-01-22T00:27:25.651Z,99.99
2018-01-22T00:28:25.647Z,99.99
2018-01-22T00:29:25.650Z,99.99
2018-01-22T00:30:25.653Z,99.99
2018-01-22T00:31:25.643Z,99.99
2018-01-22T00:32:25.640Z,99.99
2018-01-22T00:33:25.633Z,99.99
2018-01-22T00:34:25.634Z,99.99
2018-01-22T00:35:25.632Z,99.99
2018-01-22T00:36:25.622Z,99.99
2018-01-22T00:37:25.626Z,99.99
2018-01-22T00:38:25.622Z,99.99
2018-01-22T00:39:25.620Z,99.99
2018-01-22T00:40:25.615Z,99.99
2018-01-22T00:41:25.612Z,99.99
2018-01-22T00:42:25.609Z,99.99
2018-01-22T00:43:25.605Z,99.99
2018-01-22T00:44:25.606Z,99.99
2018-01-22T00:45:25.601Z,99.99
2018-01-22T00:46:25.600Z,99.99
2018-01-22T00:47:25.592Z,99.99
2018-01-22T00:48:25.574Z,99.99
2018-01-22T00:49:25.564Z,99.99
2018-01-22T00:50:25.562Z,99.99
2018-01-22T00:51:25.564Z,99.99
2018-01-22T00:52:25.561Z,99.99
2018-01-22T00:53:25.553Z,99.99
2018-01-22T00:54:25.551Z,99.99
2018-01-22T00:55:25.562Z,99.99
2018-01-22T00:56:25.568Z,99.99
2018-01-22T00:57:25.561Z,99.99
2018-01-22T00:58:25.546Z,99.99
2018-01-22T00:59:25.558Z,99.99
2018-01-22T01:00:25.547Z,99.99
2018-01-22T01:01:25.544Z,99.99
2018-01-22T01:02:25.524Z,99.99
2018-01-22T01:03:25.536Z,99.99
2018-01-22T01:04:25.523Z,99.99
2018-01-22T01:05:25.514Z,99.99
2018-01-22T01:06:25.521Z,99.99
2018-01-22T01:07:25.533Z,99.99
2018-01-22T01:08:25.611Z,99.99
2018-01-22T01:09:25.527Z,99.99
2018-01-22T01:10:25.514Z,99.99
2018-01-22T01:11:25.500Z,99.99
2018-01-22T01:12:25.512Z,99.99
2018-01-22T01:13:25.508Z,99.99
2018-01-22T01:14:25.505Z,99.99
2018-01-22T01:15:25.504Z,99.99
2018-01-22T01:16:25.492Z,99.99
2018-01-22T01:17:25.488Z,99.99
2018-01-22T01:18:25.494Z,99.99
2018-01-22T01:19:25.479Z,99.99
2018-01-22T01:20:25.480Z,99.99
2018-01-22T01:21:25.481Z,99.99
2018-01-22T01:22:25.468Z,99.99
2018-01-22T01:23:25.453Z,99.99
2018-01-22T01:24:25.470Z,99.99
2018-01-22T01:25:25.454Z,99.99
2018-01-22T01:26:25.435Z,99.99
2018-01-22T01:27:25.435Z,99.99
2018-01-22T01:28:25.445Z,99.99
2018-01-22T01:29:25.426Z,99.99
2018-01-22T01:30:25.441Z,99.99
2018-01-22T01:31:25.410Z,99.99
2018-01-22T01:32:25.426Z,99.99
2018-01-22T01:33:25.422Z,99.99
2018-01-22T01:34:25.418Z,99.99
2018-01-22T01:35:25.407Z,99.99
2018-01-22T01:36:25.402Z,99.99
2018-01-22T01:37:25.399Z,99.99
2018-01-22T01:38:25.393Z,99.99
2018-01-22T01:39:25.393Z,99.99
2018-01-22T01:40:25.388Z,99.99
2018-01-22T01:41:25.368Z,99.99
2018-01-22T01:42:25.374Z,99.99
2018-01-22T01:43:25.358Z,99.99
2018-01-22T01:44:25.352Z,99.99
2018-01-22T01:45:25.349Z,99.99
2018-01-22T01:46:25.345Z,99.99
2018-01-22T01:47:25.332Z,99.99
2018-01-22T01:48:25.334Z,99.99
2018-01-22T01:49:25.330Z,99.99
2018-01-22T01:50:25.425Z,99.99
2018-01-22T01:51:25.314Z,99.99
2018-01-22T01:52:25.311Z,99.99
2018-01-22T01:53:25.310Z,99.99
2018-01-22T01:54:25.300Z,99.99
2018-01-22T01:55:25.295Z,99.99
2018-01-22T01:56:25.295Z,99.99
2018-01-22T01:57:25.291Z,99.99
2018-01-22T01:58:25.286Z,99.99
2018-01-22T01:59:25.284Z,99.99
2018-01-22T02:00:25.269Z,99.99
2018-01-22T02:01:25.275Z,99.99
2018-01-22T02:02:25.262Z,99.99
2018-01-22T02:03:25.264Z,99.99
2018-01-22T02:04:25.263Z,99.99
2018-01-22T02:05:25.255Z,99.99
2018-01-22T02:06:25.247Z,99.99
2018-01-22T02:07:25.246Z,99.99
2018-01-22T02:08:25.242Z,99.99
2018-01-22T02:09:25.233Z,99.99
2018-01-22T02:10:25.222Z,99.99
2018-01-22T02:11:25.226Z,99.99
2018-01-22T02:12:25.218Z,99.99
2018-01-22T02:13:25.206Z,99.99
2018-01-22T02:14:25.202Z,99.99
2018-01-22T02:15:25.205Z,99.99
2018-01-22T02:16:25.201Z,99.99
2018-01-22T02:17:25.186Z,99.99
2018-01-22T02:18:25.182Z,99.99
2018-01-22T02:19:25.177Z,99.99
2018-01-22T02:20:25.181Z,99.99
2018-01-22T02:21:25.176Z,99.99
2018-01-22T02:22:25.171Z,99.99
2018-01-22T02:23:25.166Z,99.99
2018-01-22T02:24:25.152Z,99.99
2018-01-22T02:25:25.156Z,99.99
2018-01-22T02:26:25.148Z,99.99
2018-01-22T02:27:25.147Z,99.99
2018-01-22T02:28:25.142Z,99.99
2018-01-22T02:29:25.126Z,99.99
2018-01-22T02:30:25.131Z,99.99
2018-01-22T02:31:25.115Z,99.99
2018-01-22T02:32:25.220Z,99.99
2018-01-22T02:33:25.106Z,99.99
2018-01-22T02:34:25.112Z,99.99
2018-01-22T02:35:25.111Z,99.99
2018-01-22T02:36:25.090Z,99.99
2018-01-22T02:37:25.090Z,99.99
2018-01-22T02:38:25.089Z,99.99
2018-01-22T02:39:25.081Z,99.99
2018-01-22T02:40:25.069Z,99.99
2018-01-22T02:41:25.078Z,99.99
2018-01-22T02:42:25.060Z,99.99
2018-01-22T02:43:25.062Z,99.99
2018-01-22T02:44:25.149Z,99.99
2018-01-22T02:45:25.054Z,99.99
2018-01-22T02:46:25.045Z,99.99
2018-01-22T02:47:25.039Z,99.99
2018-01-22T02:48:25.035Z,99.99
2018-01-22T02:49:25.032Z,99.99
2018-01-22T02:50:25.029Z,99.99
2018-01-22T02:51:25.022Z,99.99
2018-01-22T02:52:25.014Z,99.99
2018-01-22T02:53:25.020Z,99.99
2018-01-22T02:54:24.997Z,99.99
2018-01-22T02:55:25.003Z,99.99
2018-01-22T02:56:24.986Z,99.99
2018-01-22T02:57:25.003Z,99.99
2018-01-22T02:58:25.010Z,99.99
2018-01-22T02:59:24.979Z,99.99
2018-01-22T03:00:24.991Z,99.99
2018-01-22T03:01:24.960Z,99.99
2018-01-22T03:02:24.977Z,99.99
2018-01-22T03:03:24.959Z,99.99
2018-01-22T03:04:24.960Z,99.99
2018-01-22T03:05:24.955Z,99.99
2018-01-22T03:06:24.951Z,99.99
2018-01-22T03:07:24.929Z,99.99
2018-01-22T03:08:24.929Z,99.99
2018-01-22T03:09:24.944Z,99.99
2018-01-22T03:10:24.929Z,99.99
2018-01-22T03:11:24.923Z,99.99
2018-01-22T03:12:24.911Z,99.99
2018-01-22T03:13:24.906Z,99.99
2018-01-22T03:14:24.898Z,99.99
2018-01-22T03:15:24.902Z,99.99
2018-01-22T03:16:24.892Z,99.99
2018-01-22T03:17:24.887Z,99.99
2018-01-22T03:18:24.878Z,99.99
2018-01-22T03:19:24.876Z,99.99
2018-01-22T03:20:24.986Z,99.99
2018-01-22T03:21:24.879Z,99.99
2018-01-22T03:22:24.872Z,99.99
2018-01-22T03:23:24.866Z,99.99
2018-01-22T03:24:24.861Z,99.99
2018-01-22T03:25:24.851Z,99.99
2018-01-22T03:26:24.836Z,99.99
2018-01-22T03:27:24.825Z,99.99
2018-01-22T03:28:24.825Z,99.99
2018-01-22T03:29:24.821Z,99.99
2018-01-22T03:30:24.810Z,99.99
2018-01-22T03:31:24.804Z,99.99
2018-01-22T03:32:24.805Z,99.99
2018-01-22T03:33:24.815Z,99.99
2018-01-22T03:34:24.810Z,99.99
2018-01-22T03:35:24.789Z,99.99
2018-01-22T03:36:24.800Z,99.99
2018-01-22T03:37:24.789Z,99.99
2018-01-22T03:38:24.774Z,99.99
2018-01-22T03:39:24.784Z,99.99
2018-01-22T03:40:24.779Z,99.99
2018-01-22T03:41:24.775Z,99.99
2018-01-22T03:42:24.765Z,99.99
2018-01-22T03:43:24.759Z,99.99
2018-01-22T03:44:24.861Z,99.99
2018-01-22T03:45:24.740Z,99.99
2018-01-22T03:46:24.744Z,99.99
2018-01-22T03:47:24.729Z,99.99
2018-01-22T03:48:24.739Z,99.99
2018-01-22T03:49:24.719Z,99.99
2018-01-22T03:50:24.708Z,99.99
2018-01-22T03:51:24.702Z,99.99
2018-01-22T03:52:24.704Z,99.99
2018-01-22T03:53:24.694Z,99.99
2018-01-22T03:54:24.710Z,99.99
2018-01-22T03:55:24.690Z,99.99
2018-01-22T03:56:24.779Z,99.99
2018-01-22T03:57:24.695Z,99.99
2018-01-22T03:58:24.685Z,99.99
2018-01-22T03:59:24.670Z,99.99
2018-01-22T04:00:24.665Z,99.99
2018-01-22T04:01:24.660Z,99.99
2018-01-22T04:02:24.676Z,99.99
2018-01-22T04:03:24.651Z,99.99
2018-01-22T04:04:24.644Z,99.99
2018-01-22T04:05:24.655Z,99.99
2018-01-22T04:06:24.646Z,99.99
2018-01-22T04:07:24.639Z,99.99
2018-01-22T04:08:24.623Z,99.99
2018-01-22T04:09:24.618Z,99.99
2018-01-22T04:10:24.625Z,99.99
2018-01-22T04:11:24.619Z,99.99
2018-01-22T04:12:24.615Z,99.99
2018-01-22T04:13:24.615Z,99.99
2018-01-22T04:14:24.610Z,99.99
2018-01-22T04:15:24.604Z,99.99
2018-01-22T04:16:24.583Z,99.99
2018-01-22T04:17:24.621Z,99.99
2018-01-22T04:18:24.584Z,99.99
2018-01-22T04:19:24.578Z,99.99
2018-01-22T04:20:24.562Z,99.99
2018-01-22T04:21:24.558Z,99.99
2018-01-22T04:22:24.554Z,99.99
2018-01-22T04:23:24.548Z,99.99
2018-01-22T04:24:24.543Z,99.99
2018-01-22T04:25:24.553Z,99.99
2018-01-22T04:26:24.648Z,99.99
2018-01-22T04:27:24.542Z,99.99
2018-01-22T04:28:24.522Z,99.99
2018-01-22T04:29:24.516Z,99.99
2018-01-22T04:30:24.522Z,99.99
2018-01-22T04:31:24.506Z,99.99
2018-01-22T04:32:24.601Z,99.99
2018-01-22T04:33:24.489Z,99.99
2018-01-22T04:34:24.491Z,99.99
2018-01-22T04:35:24.547Z,99.99
2018-01-22T04:36:24.480Z,99.99
2018-01-22T04:37:24.492Z,99.99
2018-01-22T04:38:24.487Z,99.99
2018-01-22T04:39:24.481Z,99.99
2018-01-22T04:40:24.476Z,99.99
2018-01-22T04:41:24.454Z,99.99
2018-01-22T04:42:24.449Z,99.99
2018-01-22T04:43:24.437Z,99.99
2018-01-22T04:44:24.456Z,99.99
2018-01-22T04:45:24.433Z,99.99
2018-01-22T04:46:24.441Z,99.99
2018-01-22T04:47:24.435Z,99.99
2018-01-22T04:48:24.435Z,99.99
2018-01-22T04:49:24.430Z,99.99
2018-01-22T04:50:24.420Z,99.99
2018-01-22T04:51:24.413Z,99.99
2018-01-22T04:52:24.409Z,99.99
2018-01-22T04:53:24.409Z,99.99
2018-01-22T04:54:24.407Z,99.99
2018-01-22T04:55:24.393Z,99.99
2018-01-22T04:56:24.487Z,99.99
2018-01-22T04:57:24.382Z,99.99
2018-01-22T04:58:24.377Z,99.99
2018-01-22T04:59:24.376Z,99.99
2018-01-22T05:00:24.371Z,99.99
2018-01-22T05:01:24.366Z,99.99
2018-01-22T05:02:24.361Z,99.99
2018-01-22T05:03:24.351Z,99.99
2018-01-22T05:04:24.402Z,99.99
2018-01-22T05:05:24.339Z,99.99
2018-01-22T05:06:24.334Z,99.99
2018-01-22T05:07:24.334Z,99.99
2018-01-22T05:08:24.329Z,99.99
2018-01-22T05:09:24.318Z,99.99
2018-01-22T05:10:24.318Z,99.99
2018-01-22T05:11:24.308Z,99.99
2018-01-22T05:12:24.309Z,99.99
2018-01-22T05:13:24.298Z,99.99
2018-01-22T05:14:24.298Z,99.99
2018-01-22T05:15:24.292Z,99.99
2018-01-22T05:16:24.287Z,99.99
2018-01-22T05:17:24.282Z,99.99
2018-01-22T05:18:24.272Z,99.99
2018-01-22T05:19:24.268Z,99.99
2018-01-22T05:20:24.362Z,99.99
2018-01-22T05:21:24.257Z,99.99
2018-01-22T05:22:24.257Z,99.99
2018-01-22T05:23:24.258Z,99.99
2018-01-22T05:24:24.245Z,99.99
2018-01-22T05:25:24.236Z,99.99
2018-01-22T05:26:24.237Z,99.99
2018-01-22T05:27:24.209Z,99.99
2018-01-22T05:28:24.221Z,99.99
2018-01-22T05:29:24.198Z,99.99
2018-01-22T05:30:24.211Z,99.99
2018-01-22T05:31:24.192Z,99.99
2018-01-22T05:32:24.201Z,99.99
2018-01-22T05:33:24.178Z,99.99
2018-01-22T05:34:24.192Z,99.99
2018-01-22T05:35:24.168Z,99.99
2018-01-22T05:36:24.181Z,99.99
2018-01-22T05:37:24.176Z,99.99
2018-01-22T05:38:24.153Z,99.99
2018-01-22T05:39:24.147Z,99.99
2018-01-22T05:40:24.155Z,99.99
2018-01-22T05:41:24.137Z,99.99
2018-01-22T05:42:24.139Z,99.99
2018-01-22T05:43:24.139Z,99.99
2018-01-22T05:44:24.122Z,99.99
2018-01-22T05:45:24.145Z,99.99
2018-01-22T05:46:24.123Z,99.99
2018-01-22T05:47:24.111Z,99.99
2018-01-22T05:48:24.120Z,99.99
2018-01-22T05:49:24.101Z,99.99
2018-01-22T05:50:24.116Z,99.99
2018-01-22T05:51:24.110Z,99.99
2018-01-22T05:52:24.100Z,99.99
2018-01-22T05:53:24.095Z,99.99
2018-01-22T05:54:24.072Z,99.99
2018-01-22T05:55:24.084Z,99.99
2018-01-22T05:56:24.085Z,99.99
2018-01-22T05:57:24.080Z,99.99
2018-01-22T05:58:24.052Z,99.99
2018-01-22T05:59:24.070Z,99.99
2018-01-22T06:00:24.047Z,99.99
2018-01-22T06:01:24.042Z,99.99
2018-01-22T06:02:24.056Z,99.99
2018-01-22T06:03:24.026Z,99.99
2018-01-22T06:04:24.042Z,99.99
2018-01-22T06:05:24.044Z,99.99
2018-01-22T06:06:24.030Z,99.99
2018-01-22T06:07:24.030Z,99.99
2018-01-22T06:08:24.008Z,99.99
2018-01-22T06:09:24.015Z,99.99
2018-01-22T06:10:24.016Z,99.99
2018-01-22T06:11:24.010Z,99.99
2018-01-22T06:12:23.981Z,99.99
2018-01-22T06:13:24.001Z,99.99
2018-01-22T06:14:24.091Z,99.99
2018-01-22T06:15:23.991Z,99.99
2018-01-22T06:16:23.961Z,99.99
2018-01-22T06:17:23.963Z,99.99
2018-01-22T06:18:23.957Z,99.99
2018-01-22T06:19:23.970Z,99.99
2018-01-22T06:20:24.042Z,99.99
2018-01-22T06:21:23.938Z,99.99
2018-01-22T06:22:23.933Z,99.99
2018-01-22T06:23:23.927Z,99.99
2018-01-22T06:24:23.940Z,99.99
2018-01-22T06:25:23.941Z,99.99
2018-01-22T06:26:23.931Z,99.99
2018-01-22T06:27:23.908Z,99.99
2018-01-22T06:28:23.926Z,99.99
2018-01-22T06:29:23.916Z,99.99
2018-01-22T06:30:23.916Z,99.99
2018-01-22T06:31:23.905Z,99.99
2018-01-22T06:32:24.001Z,99.99
2018-01-22T06:33:23.896Z,99.99
2018-01-22T06:34:23.891Z,99.99
2018-01-22T06:35:23.886Z,99.99
2018-01-22T06:36:23.881Z,99.99
2018-01-22T06:37:23.882Z,99.99
2018-01-22T06:38:23.876Z,99.99
2018-01-22T06:39:23.871Z,99.99
2018-01-22T06:40:23.859Z,99.99
2018-01-22T06:41:23.863Z,99.99
2018-01-22T06:42:23.856Z,99.99
2018-01-22T06:43:23.855Z,99.99
2018-01-22T06:44:23.943Z,99.99
2018-01-22T06:45:23.839Z,99.99
2018-01-22T06:46:23.840Z,99.99
2018-01-22T06:47:23.830Z,99.99
2018-01-22T06:48:23.818Z,99.99
2018-01-22T06:49:23.815Z,99.99
2018-01-22T06:50:23.813Z,99.99
2018-01-22T06:51:23.808Z,99.99
2018-01-22T06:52:23.806Z,99.99
2018-01-22T06:53:23.800Z,99.99
2018-01-22T06:54:23.787Z,99.99
2018-01-22T06:55:23.782Z,99.99
2018-01-22T06:56:23.792Z,99.99
2018-01-22T06:57:23.782Z,99.99
2018-01-22T06:58:23.750Z,99.99
2018-01-22T06:59:23.767Z,99.99
2018-01-22T07:00:23.766Z,99.99
2018-01-22T07:01:23.735Z,99.99
2018-01-22T07:02:23.747Z,99.99
2018-01-22T07:03:23.725Z,99.99
2018-01-22T07:04:23.745Z,99.99
2018-01-22T07:05:23.724Z,99.99
2018-01-22T07:06:23.720Z,99.99
2018-01-22T07:07:23.715Z,99.99
2018-01-22T07:08:23.725Z,99.99
2018-01-22T07:09:23.710Z,99.99
2018-01-22T07:10:23.689Z,99.99
2018-01-22T07:11:23.709Z,99.99
2018-01-22T07:12:23.695Z,99.99
2018-01-22T07:13:23.674Z,99.99
2018-01-22T07:14:23.686Z,99.99
2018-01-22T07:15:23.692Z,99.99
2018-01-22T07:16:23.659Z,99.99
2018-01-22T07:17:23.663Z,99.99
2018-01-22T07:18:23.666Z,99.99
2018-01-22T07:19:23.649Z,99.99
2018-01-22T07:20:23.765Z,99.99
2018-01-22T07:21:23.650Z,99.99
2018-01-22T07:22:23.638Z,99.99
2018-01-22T07:23:23.629Z,99.99
2018-01-22T07:24:23.644Z,99.99
2018-01-22T07:25:23.622Z,99.99
2018-01-22T07:26:23.625Z,99.99
2018-01-22T07:27:23.612Z,99.99
2018-01-22T07:28:23.654Z,99.99
2018-01-22T07:29:23.609Z,99.99
2018-01-22T07:30:23.605Z,99.99
2018-01-22T07:31:23.592Z,99.99
2018-01-22T07:32:23.600Z,99.99
2018-01-22T07:33:23.578Z,99.99
2018-01-22T07:34:23.590Z,99.99
2018-01-22T07:35:23.579Z,99.99
2018-01-22T07:36:23.574Z,99.99
2018-01-22T07:37:23.579Z,99.99
2018-01-22T07:38:23.549Z,99.99
2018-01-22T07:39:23.569Z,99.99
2018-01-22T07:40:23.560Z,99.99
2018-01-22T07:41:23.545Z,99.99
2018-01-22T07:42:23.554Z,99.99
2018-01-22T07:43:23.544Z,99.99
2018-01-22T07:44:23.623Z,99.99
2018-01-22T07:45:23.519Z,99.99
2018-01-22T07:46:23.508Z,99.99
2018-01-22T07:47:23.513Z,99.99
2018-01-22T07:48:23.510Z,99.99
2018-01-22T07:49:23.493Z,99.99
2018-01-22T07:50:23.505Z,99.99
2018-01-22T07:51:23.504Z,99.99
2018-01-22T07:52:23.504Z,99.99
2018-01-22T07:53:23.499Z,99.99
2018-01-22T07:54:23.494Z,99.99
2018-01-22T07:55:23.479Z,99.99
2018-01-22T07:56:23.467Z,99.99
2018-01-22T07:57:23.452Z,99.99
2018-01-22T07:58:23.464Z,99.99
2018-01-22T07:59:23.458Z,99.99
2018-01-22T08:00:23.444Z,99.99
2018-01-22T08:01:23.439Z,99.99
2018-01-22T08:02:23.444Z,99.99
2018-01-22T08:03:23.422Z,99.99
2018-01-22T08:04:23.438Z,99.99
2018-01-22T08:05:23.428Z,99.99
2018-01-22T08:06:23.423Z,99.99
2018-01-22T08:07:23.401Z,99.99
2018-01-22T08:08:23.513Z,99.99
2018-01-22T08:09:23.392Z,99.99
2018-01-22T08:10:23.387Z,99.99
2018-01-22T08:11:23.397Z,99.99
2018-01-22T08:12:23.393Z,99.99
2018-01-22T08:13:23.388Z,99.99
2018-01-22T08:14:23.383Z,99.99
2018-01-22T08:15:23.362Z,99.99
2018-01-22T08:16:23.362Z,99.99
2018-01-22T08:17:23.367Z,99.99
2018-01-22T08:18:23.345Z,99.99
2018-01-22T08:19:23.356Z,99.99
2018-01-22T08:20:23.341Z,99.99
2018-01-22T08:21:23.346Z,99.99
2018-01-22T08:22:23.342Z,99.99
2018-01-22T08:23:23.320Z,99.99
2018-01-22T08:24:23.332Z,99.99
2018-01-22T08:25:23.331Z,99.99
2018-01-22T08:26:23.427Z,99.99
2018-01-22T08:27:23.315Z,99.99
2018-01-22T08:28:23.296Z,99.99
2018-01-22T08:29:23.290Z,99.99
2018-01-22T08:30:23.286Z,99.99
2018-01-22T08:31:23.279Z,99.99
2018-01-22T08:32:23.290Z,99.99
2018-01-22T08:33:23.290Z,99.99
2018-01-22T08:34:23.289Z,99.99
2018-01-22T08:35:23.280Z,99.99
2018-01-22T08:36:23.270Z,99.99
2018-01-22T08:37:23.248Z,99.99
2018-01-22T08:38:23.244Z,99.99
2018-01-22T08:39:23.254Z,99.99
2018-01-22T08:40:23.249Z,99.99
2018-01-22T08:41:23.234Z,99.99
2018-01-22T08:42:23.240Z,99.99
2018-01-22T08:43:23.234Z,99.99
2018-01-22T08:44:23.212Z,99.99
2018-01-22T08:45:23.214Z,99.99
2018-01-22T08:46:23.209Z,99.99
2018-01-22T08:47:23.196Z,99.99
2018-01-22T08:48:23.196Z,99.99
2018-01-22T08:49:23.192Z,99.99
2018-01-22T08:50:23.182Z,99.99
2018-01-22T08:51:23.182Z,99.99
2018-01-22T08:52:23.171Z,99.99
2018-01-22T08:53:23.166Z,99.99
2018-01-22T08:54:23.161Z,99.99
2018-01-22T08:55:23.156Z,99.99
2018-01-22T08:56:23.151Z,99.99
2018-01-22T08:57:23.145Z,99.99
2018-01-22T08:58:23.147Z,99.99
2018-01-22T08:59:23.142Z,99.99
2018-01-22T09:00:23.130Z,99.99
2018-01-22T09:01:23.143Z,99.99
2018-01-22T09:02:23.120Z,99.99
2018-01-22T09:03:23.114Z,99.99
2018-01-22T09:04:23.109Z,99.99
2018-01-22T09:05:23.106Z,99.99
2018-01-22T09:06:23.100Z,99.99
2018-01-22T09:07:23.094Z,99.99
2018-01-22T09:08:23.090Z,99.99
2018-01-22T09:09:23.085Z,99.99
2018-01-22T09:10:23.080Z,99.99
2018-01-22T09:11:23.073Z,99.99
2018-01-22T09:12:23.069Z,99.99
2018-01-22T09:13:23.070Z,99.99
2018-01-22T09:14:23.076Z,99.99
2018-01-22T09:15:23.070Z,99.99
2018-01-22T09:16:23.065Z,99.99
2018-01-22T09:17:23.066Z,99.99
2018-01-22T09:18:23.055Z,99.99
2018-01-22T09:19:23.033Z,99.99
2018-01-22T09:20:23.144Z,99.99
2018-01-22T09:21:23.028Z,99.99
2018-01-22T09:22:23.018Z,99.99
2018-01-22T09:23:23.013Z,99.99
2018-01-22T09:24:23.008Z,99.99
2018-01-22T09:25:23.003Z,99.99
2018-01-22T09:26:23.014Z,99.99
2018-01-22T09:27:22.995Z,99.99
2018-01-22T09:28:23.004Z,99.99
2018-01-22T09:29:22.982Z,99.99
2018-01-22T09:30:22.980Z,99.99
2018-01-22T09:31:22.972Z,99.99
2018-01-22T09:32:23.068Z,99.99
2018-01-22T09:33:22.979Z,99.99
2018-01-22T09:34:22.960Z,99.99
2018-01-22T09:35:22.974Z,99.99
2018-01-22T09:36:22.964Z,99.99
2018-01-22T09:37:22.959Z,99.99
2018-01-22T09:38:22.940Z,99.99
2018-01-22T09:39:22.949Z,99.99
2018-01-22T09:40:22.945Z,99.99
2018-01-22T09:41:22.940Z,99.99
2018-01-22T09:42:22.936Z,99.99
2018-01-22T09:43:22.930Z,99.99
2018-01-22T09:44:22.909Z,99.99
2018-01-22T09:45:22.914Z,99.99
2018-01-22T09:46:22.926Z,99.99
2018-01-22T09:47:22.896Z,99.99
2018-01-22T09:48:22.890Z,99.99
2018-01-22T09:49:22.888Z,99.99
2018-01-22T09:50:22.982Z,99.99
2018-01-22T09:51:22.886Z,99.99
2018-01-22T09:52:22.872Z,99.99
2018-01-22T09:53:22.886Z,99.99
2018-01-22T09:54:22.873Z,99.99
2018-01-22T09:55:22.869Z,99.99
2018-01-22T09:56:22.858Z,99.99
2018-01-22T09:57:22.868Z,99.99
2018-01-22T09:58:22.863Z,99.99
2018-01-22T09:59:22.846Z,99.99
2018-01-22T10:00:22.854Z,99.99
2018-01-22T10:01:22.831Z,99.99
2018-01-22T10:02:22.846Z,99.99
2018-01-22T10:03:22.832Z,99.99
2018-01-22T10:04:22.817Z,99.99
2018-01-22T10:05:22.820Z,99.99
2018-01-22T10:06:22.820Z,99.99
2018-01-22T10:07:22.804Z,99.99
2018-01-22T10:08:22.919Z,99.99
2018-01-22T10:09:22.801Z,99.99
2018-01-22T10:10:22.820Z,99.99
2018-01-22T10:11:22.805Z,99.99
2018-01-22T10:12:22.789Z,99.99
2018-01-22T10:13:22.807Z,99.99
2018-01-22T10:14:22.785Z,99.99
2018-01-22T10:15:22.792Z,99.99
2018-01-22T10:16:22.790Z,99.99
2018-01-22T10:17:22.786Z,99.99
2018-01-22T10:18:22.776Z,99.99
2018-01-22T10:19:22.783Z,99.99
2018-01-22T10:20:22.749Z,99.99
2018-01-22T10:21:22.764Z,99.99
2018-01-22T10:22:22.742Z,99.99
2018-01-22T10:23:22.752Z,99.99
2018-01-22T10:24:22.749Z,99.99
2018-01-22T10:25:22.747Z,99.99
2018-01-22T10:26:22.743Z,99.99
2018-01-22T10:27:22.741Z,99.99
2018-01-22T10:28:22.741Z,99.99
2018-01-22T10:29:22.738Z,99.99
2018-01-22T10:30:22.740Z,99.99
2018-01-22T10:31:22.729Z,99.99
2018-01-22T10:32:22.725Z,99.99
2018-01-22T10:33:22.722Z,99.99
2018-01-22T10:34:22.708Z,99.99
2018-01-22T10:35:22.713Z,99.99
2018-01-22T10:36:22.709Z,99.99
2018-01-22T10:37:22.706Z,99.99
2018-01-22T10:38:22.697Z,99.99
2018-01-22T10:39:22.696Z,99.99
2018-01-22T10:40:22.693Z,99.99
2018-01-22T10:41:22.689Z,99.99
2018-01-22T10:42:22.685Z,99.99
2018-01-22T10:43:22.681Z,99.99
2018-01-22T10:44:22.677Z,99.99
2018-01-22T10:45:22.673Z,99.99
2018-01-22T10:46:22.660Z,99.99
2018-01-22T10:47:22.656Z,99.99
2018-01-22T10:48:22.652Z,99.99
2018-01-22T10:49:22.703Z,99.99
2018-01-22T10:50:22.654Z,99.99
2018-01-22T10:51:22.640Z,99.99
2018-01-22T10:52:22.636Z,99.99
2018-01-22T10:53:22.642Z,99.99
2018-01-22T10:54:22.629Z,99.99
2018-01-22T10:55:22.627Z,99.99
2018-01-22T10:56:22.630Z,99.99
2018-01-22T10:57:22.627Z,99.99
2018-01-22T10:58:22.615Z,99.99
2018-01-22T10:59:22.620Z,99.99
2018-01-22T11:00:22.616Z,99.99
2018-01-22T11:01:22.813Z,99.99
2018-01-22T11:02:22.610Z,99.99
2018-01-22T11:03:22.600Z,99.99
2018-01-22T11:04:22.601Z,99.99
2018-01-22T11:05:22.594Z,99.99
2018-01-22T11:06:22.594Z,99.99
2018-01-22T11:07:22.586Z,99.99
2018-01-22T11:08:22.577Z,99.99
2018-01-22T11:09:22.583Z,99.99
2018-01-22T11:10:22.570Z,99.99
2018-01-22T11:11:22.575Z,99.99
2018-01-22T11:12:22.567Z,99.70
2018-01-22T11:13:22.558Z,99.99
2018-01-22T11:14:22.561Z,99.99
2018-01-22T11:15:22.561Z,97.86
2018-01-22T11:16:22.558Z,98.44
2018-01-22T11:17:22.551Z,99.21
2018-01-22T11:18:22.547Z,99.36
2018-01-22T11:19:22.546Z,99.36
2018-01-22T11:20:22.534Z,98.78
2018-01-22T11:21:22.541Z,98.58
2018-01-22T11:22:22.537Z,97.03
2018-01-22T11:23:22.533Z,96.84
2018-01-22T11:24:22.526Z,97.03
2018-01-22T11:25:22.523Z,96.12
2018-01-22T11:26:22.524Z,94.32
2018-01-22T11:27:22.521Z,94.52
2018-01-22T11:28:22.514Z,94.95
2018-01-22T11:29:22.510Z,94.90
2018-01-22T11:30:22.511Z,94.42
2018-01-22T11:31:22.503Z,92.49
2018-01-22T11:32:22.503Z,92.53
2018-01-22T11:33:22.504Z,92.72
2018-01-22T11:34:22.500Z,92.72
2018-01-22T11:35:22.502Z,93.98
2018-01-22T11:36:22.494Z,94.66
2018-01-22T11:37:22.470Z,93.79
2018-01-22T11:38:22.470Z,92.53
2018-01-22T11:39:22.581Z,93.21
2018-01-22T11:40:22.464Z,92.43
2018-01-22T11:41:22.479Z,92.24
2018-01-22T11:42:22.476Z,92.33
2018-01-22T11:43:22.474Z,92.68
2018-01-22T11:44:22.447Z,92.00
2018-01-22T11:45:22.445Z,92.49
2018-01-22T11:46:22.460Z,92.00
2018-01-22T11:47:22.456Z,92.10
2018-01-22T11:48:22.435Z,92.19
2018-01-22T11:49:22.435Z,92.63
2018-01-22T11:50:22.447Z,92.58
2018-01-22T11:51:22.447Z,91.85
2018-01-22T11:52:22.422Z,92.14
2018-01-22T11:53:22.441Z,91.56
2018-01-22T11:54:22.438Z,90.20
2018-01-22T11:55:22.415Z,90.40
2018-01-22T11:56:22.431Z,89.72
2018-01-22T11:57:22.410Z,90.01
2018-01-22T11:58:22.425Z,89.18
2018-01-22T11:59:22.422Z,88.70
2018-01-22T12:00:22.400Z,89.76
2018-01-22T12:01:22.398Z,89.47
2018-01-22T12:02:22.417Z,89.37
2018-01-22T12:03:22.405Z,89.76
2018-01-22T12:04:22.407Z,89.09
2018-01-22T12:05:22.387Z,88.06
2018-01-22T12:06:22.379Z,85.54
2018-01-22T12:07:22.386Z,84.77
2018-01-22T12:08:22.377Z,85.74
2018-01-22T12:09:22.393Z,85.25
2018-01-22T12:10:22.388Z,85.74
2018-01-22T12:11:22.388Z,85.29
2018-01-22T12:12:22.381Z,84.71
2018-01-22T12:13:22.378Z,85.19
2018-01-22T12:14:22.380Z,85.06
2018-01-22T12:15:22.377Z,83.80
2018-01-22T12:16:22.371Z,83.64
2018-01-22T12:17:22.372Z,84.22
2018-01-22T12:18:22.370Z,83.94
2018-01-22T12:19:22.363Z,84.12
2018-01-22T12:20:22.369Z,83.74
2018-01-22T12:21:22.361Z,83.35
2018-01-22T12:22:22.356Z,84.22
2018-01-22T12:23:22.354Z,84.32
2018-01-22T12:24:22.351Z,83.94
2018-01-22T12:25:22.349Z,84.94
2018-01-22T12:26:22.347Z,83.59
2018-01-22T12:27:22.344Z,82.07
2018-01-22T12:28:22.342Z,82.56
2018-01-22T12:29:22.345Z,81.63
2018-01-22T12:30:22.343Z,80.36
2018-01-22T12:31:22.340Z,81.04
2018-01-22T12:32:22.337Z,81.14
2018-01-22T12:33:22.334Z,82.15
2018-01-22T12:34:22.336Z,78.07
2018-01-22T12:35:22.334Z,76.81
2018-01-22T12:36:22.329Z,77.20
2018-01-22T12:37:22.332Z,77.20
2018-01-22T12:38:22.327Z,76.81
2018-01-22T12:39:22.329Z,76.35
2018-01-22T12:40:22.328Z,77.72
2018-01-22T12:41:22.327Z,77.56
2018-01-22T12:42:22.322Z,74.71
2018-01-22T12:43:22.323Z,74.45
2018-01-22T12:44:22.324Z,74.68
2018-01-22T12:45:22.324Z,73.38
2018-01-22T12:46:22.322Z,73.18
2018-01-22T12:47:22.321Z,72.44
2018-01-22T12:48:22.322Z,72.15
2018-01-22T12:49:22.322Z,72.05
2018-01-22T12:50:22.316Z,71.95
2018-01-22T12:51:22.320Z,72.09
2018-01-22T12:52:22.318Z,70.40